Impacts TAF Board
For situational awareness. Not to be used for flight planning purposes.
IDs:

KDHT - Dalhart Muni, TX, US

Issued at 1724 UTC 08 Aug 2020
Updated at 2042 UTC 08 Aug 2020
Potential Impact None Slight Moderate High
Time1953Z 08/21Z 08/22Z 08/23Z 09/00Z 09/01Z 09/02Z 09/03Z 09/04Z 09/05Z 09/06Z 09/07Z 09/08Z 09/09Z>>
Type OBS PRVL PRVL PRVL PRVL PRVL PRVL PRVL PRVL PRVL PRVL PRVL PRVL PRVL
VIS 10 >6 >6 >6 >6 >6 >6 >6 >6 >6 >6 >6 >6 >6
CIG -- -- -- -- -- -- -- 100 100 100 100 100 100 100
Cover CLR FEW FEW FEW FEW FEW FEW BKN BKN BKN BKN BKN BKN BKN
FltCat VFR VFR VFR VFR VFR VFR VFR VFR VFR VFR VFR VFR VFR VFR
WX -- -- -- -- -- -- -- -- -- -- -- -- -- --
WDir 210 230 230 230 230 230 230 200 200 200 200 200 200 200
WSpd 13 16 16 16 16 16 16 10 10 10 10 10 10 10
WGst 22 -- -- -- -- -- -- 19 19 19 19 19 19 19
Raw TAF
KDHT 081724Z 0818/0918 23016KT P6SM FEW250
  FM090300 20010G19KT P6SM BKN100


Raw METAR
KDHT 081953Z AUTO 21013G22KT 10SM CLR 38/09 A3005 RMK AO2 PK WND 19027/1921 SLP100 T03780089
KDHT 081853Z AUTO 22017G23KT 10SM CLR 38/09 A3006 RMK AO2 SLP101 T03780089
KDHT 081753Z AUTO 24018G26KT 10SM CLR 36/11 A3007 RMK AO2 PK WND 22027/1740 SLP109 T03560106 10356 20189 58005

METAR Board
Radar Display
Forecast Discussion
For situational awareness. Not to be used for flight planning purposes.